sensor_id;sensor_type;location;lat;lon;timestamp;P1;durP1;ratioP1;P2;durP2;ratioP2
7444;SDS011;3764;48.126;11.594;2023-10-13T00:01:46;8.33;;;4.00;;
7444;SDS011;3764;48.126;11.594;2023-10-13T00:04:17;10.63;;;4.07;;
7444;SDS011;3764;48.126;11.594;2023-10-13T00:06:50;6.07;;;3.67;;
7444;SDS011;3764;48.126;11.594;2023-10-13T00:09:17;7.53;;;4.00;;
7444;SDS011;3764;48.126;11.594;2023-10-13T00:11:54;9.60;;;3.65;;
7444;SDS011;3764;48.126;11.594;2023-10-13T00:14:21;5.63;;;3.23;;
7444;SDS011;3764;48.126;11.594;2023-10-13T00:16:57;7.07;;;3.25;;
7444;SDS011;3764;48.126;11.594;2023-10-13T00:19:30;7.13;;;3.10;;
7444;SDS011;3764;48.126;11.594;2023-10-13T00:22:04;9.40;;;3.57;;
7444;SDS011;3764;48.126;11.594;2023-10-13T00:24:35;5.93;;;3.45;;
7444;SDS011;3764;48.126;11.594;2023-10-13T00:27:10;9.40;;;4.82;;
7444;SDS011;3764;48.126;11.594;2023-10-13T00:29:53;7.00;;;4.30;;
7444;SDS011;3764;48.126;11.594;2023-10-13T00:32:41;6.85;;;3.45;;
7444;SDS011;3764;48.126;11.594;2023-10-13T00:35:09;6.75;;;4.30;;
7444;SDS011;3764;48.126;11.594;2023-10-13T00:37:49;5.03;;;3.53;;
7444;SDS011;3764;48.126;11.594;2023-10-13T00:40:18;9.02;;;4.18;;
7444;SDS011;3764;48.126;11.594;2023-10-13T00:43:08;7.47;;;3.47;;
7444;SDS011;3764;48.126;11.594;2023-10-13T00:45:53;6.75;;;4.05;;
7444;SDS011;3764;48.126;11.594;2023-10-13T00:48:24;6.97;;;3.40;;
7444;SDS011;3764;48.126;11.594;2023-10-13T00:50:57;5.28;;;3.47;;
7444;SDS011;3764;48.126;11.594;2023-10-13T00:53:28;5.60;;;4.03;;
7444;SDS011;3764;48.126;11.594;2023-10-13T00:55:58;9.07;;;4.20;;
7444;SDS011;3764;48.126;11.594;2023-10-13T00:58:33;7.55;;;3.72;;
7444;SDS011;3764;48.126;11.594;2023-10-13T01:01:00;6.57;;;3.37;;
7444;SDS011;3764;48.126;11.594;2023-10-13T01:03:43;4.75;;;3.25;;
7444;SDS011;3764;48.126;11.594;2023-10-13T01:06:10;6.20;;;3.50;;
7444;SDS011;3764;48.126;11.594;2023-10-13T01:08:39;6.45;;;3.80;;
7444;SDS011;3764;48.126;11.594;2023-10-13T01:11:07;6.67;;;3.77;;
7444;SDS011;3764;48.126;11.594;2023-10-13T01:13:37;5.63;;;3.27;;
7444;SDS011;3764;48.126;11.594;2023-10-13T01:16:03;12.30;;;4.30;;
7444;SDS011;3764;48.126;11.594;2023-10-13T01:18:32;7.03;;;3.90;;
7444;SDS011;3764;48.126;11.594;2023-10-13T01:21:05;8.52;;;4.40;;
7444;SDS011;3764;48.126;11.594;2023-10-13T01:23:33;7.22;;;3.33;;
7444;SDS011;3764;48.126;11.594;2023-10-13T01:26:03;7.05;;;4.00;;
7444;SDS011;3764;48.126;11.594;2023-10-13T01:28:31;15.77;;;4.65;;
7444;SDS011;3764;48.126;11.594;2023-10-13T01:31:09;7.82;;;4.65;;
7444;SDS011;3764;48.126;11.594;2023-10-13T01:33:49;9.90;;;4.70;;
7444;SDS011;3764;48.126;11.594;2023-10-13T01:36:19;10.98;;;4.13;;
7444;SDS011;3764;48.126;11.594;2023-10-13T01:38:48;5.73;;;3.00;;
7444;SDS011;3764;48.126;11.594;2023-10-13T01:41:15;5.57;;;3.35;;
7444;SDS011;3764;48.126;11.594;2023-10-13T01:43:42;4.68;;;3.67;;
7444;SDS011;3764;48.126;11.594;2023-10-13T01:46:09;6.45;;;3.65;;
7444;SDS011;3764;48.126;11.594;2023-10-13T01:48:39;5.32;;;3.63;;
7444;SDS011;3764;48.126;11.594;2023-10-13T01:51:05;8.88;;;4.47;;
7444;SDS011;3764;48.126;11.594;2023-10-13T01:53:35;8.55;;;5.00;;
7444;SDS011;3764;48.126;11.594;2023-10-13T01:56:03;5.15;;;3.00;;
7444;SDS011;3764;48.126;11.594;2023-10-13T01:58:40;6.82;;;3.97;;
7444;SDS011;3764;48.126;11.594;2023-10-13T02:01:13;4.60;;;3.05;;
7444;SDS011;3764;48.126;11.594;2023-10-13T02:03:51;6.45;;;3.65;;
7444;SDS011;3764;48.126;11.594;2023-10-13T02:06:26;5.40;;;3.60;;
7444;SDS011;3764;48.126;11.594;2023-10-13T02:08:58;5.55;;;3.13;;
7444;SDS011;3764;48.126;11.594;2023-10-13T02:11:32;4.32;;;3.25;;
7444;SDS011;3764;48.126;11.594;2023-10-13T02:13:59;4.53;;;3.30;;
7444;SDS011;3764;48.126;11.594;2023-10-13T02:16:25;5.95;;;3.30;;
7444;SDS011;3764;48.126;11.594;2023-10-13T02:18:52;8.50;;;4.18;;
7444;SDS011;3764;48.126;11.594;2023-10-13T02:21:19;6.90;;;3.97;;
7444;SDS011;3764;48.126;11.594;2023-10-13T02:23:46;8.05;;;3.33;;
7444;SDS011;3764;48.126;11.594;2023-10-13T02:26:25;7.05;;;3.60;;
7444;SDS011;3764;48.126;11.594;2023-10-13T02:28:56;6.32;;;3.35;;
7444;SDS011;3764;48.126;11.594;2023-10-13T02:31:26;5.45;;;3.50;;
7444;SDS011;3764;48.126;11.594;2023-10-13T02:33:53;6.38;;;3.47;;
7444;SDS011;3764;48.126;11.594;2023-10-13T02:36:20;6.25;;;3.95;;
7444;SDS011;3764;48.126;11.594;2023-10-13T02:38:48;7.28;;;3.50;;
7444;SDS011;3764;48.126;11.594;2023-10-13T02:41:17;5.55;;;4.10;;
7444;SDS011;3764;48.126;11.594;2023-10-13T02:43:51;6.95;;;3.92;;
7444;SDS011;3764;48.126;11.594;2023-10-13T02:46:20;5.35;;;3.67;;
7444;SDS011;3764;48.126;11.594;2023-10-13T02:48:47;10.07;;;3.75;;
7444;SDS011;3764;48.126;11.594;2023-10-13T02:51:18;10.38;;;4.13;;
7444;SDS011;3764;48.126;11.594;2023-10-13T02:53:50;5.45;;;3.60;;
7444;SDS011;3764;48.126;11.594;2023-10-13T02:56:18;6.40;;;3.42;;
7444;SDS011;3764;48.126;11.594;2023-10-13T02:58:46;5.63;;;3.58;;
7444;SDS011;3764;48.126;11.594;2023-10-13T03:01:20;5.88;;;3.65;;
7444;SDS011;3764;48.126;11.594;2023-10-13T03:03:48;5.47;;;3.15;;
7444;SDS011;3764;48.126;11.594;2023-10-13T03:06:20;4.85;;;3.42;;
7444;SDS011;3764;48.126;11.594;2023-10-13T03:08:49;7.05;;;3.75;;
7444;SDS011;3764;48.126;11.594;2023-10-13T03:11:17;11.23;;;3.78;;
7444;SDS011;3764;48.126;11.594;2023-10-13T03:13:47;7.63;;;3.83;;
7444;SDS011;3764;48.126;11.594;2023-10-13T03:16:17;7.25;;;3.58;;
7444;SDS011;3764;48.126;11.594;2023-10-13T03:18:47;12.40;;;5.80;;
7444;SDS011;3764;48.126;11.594;2023-10-13T03:21:21;5.45;;;3.30;;
7444;SDS011;3764;48.126;11.594;2023-10-13T03:23:55;8.88;;;4.15;;
7444;SDS011;3764;48.126;11.594;2023-10-13T03:26:23;8.80;;;3.90;;
7444;SDS011;3764;48.126;11.594;2023-10-13T03:28:50;5.97;;;3.47;;
7444;SDS011;3764;48.126;11.594;2023-10-13T03:31:18;8.13;;;4.10;;
7444;SDS011;3764;48.126;11.594;2023-10-13T03:33:54;10.57;;;3.53;;
7444;SDS011;3764;48.126;11.594;2023-10-13T03:36:25;9.45;;;4.00;;
7444;SDS011;3764;48.126;11.594;2023-10-13T03:39:12;6.68;;;3.88;;
7444;SDS011;3764;48.126;11.594;2023-10-13T03:41:39;6.07;;;3.60;;
7444;SDS011;3764;48.126;11.594;2023-10-13T03:44:06;5.80;;;3.83;;
7444;SDS011;3764;48.126;11.594;2023-10-13T03:46:38;9.93;;;4.10;;
7444;SDS011;3764;48.126;11.594;2023-10-13T03:49:09;7.68;;;3.95;;
7444;SDS011;3764;48.126;11.594;2023-10-13T03:51:38;6.85;;;3.78;;
7444;SDS011;3764;48.126;11.594;2023-10-13T03:54:05;8.90;;;4.27;;
7444;SDS011;3764;48.126;11.594;2023-10-13T03:56:33;6.85;;;3.70;;
7444;SDS011;3764;48.126;11.594;2023-10-13T03:59:05;16.95;;;5.25;;
7444;SDS011;3764;48.126;11.594;2023-10-13T04:01:35;6.60;;;4.72;;
7444;SDS011;3764;48.126;11.594;2023-10-13T04:04:13;4.47;;;3.50;;
7444;SDS011;3764;48.126;11.594;2023-10-13T04:06:55;10.60;;;3.85;;
7444;SDS011;3764;48.126;11.594;2023-10-13T04:09:38;6.05;;;3.50;;
7444;SDS011;3764;48.126;11.594;2023-10-13T04:12:19;6.40;;;3.80;;
7444;SDS011;3764;48.126;11.594;2023-10-13T04:15:03;6.80;;;4.25;;
7444;SDS011;3764;48.126;11.594;2023-10-13T04:17:45;6.22;;;3.33;;
7444;SDS011;3764;48.126;11.594;2023-10-13T04:20:15;4.68;;;3.35;;
7444;SDS011;3764;48.126;11.594;2023-10-13T04:23:03;6.53;;;3.85;;
7444;SDS011;3764;48.126;11.594;2023-10-13T04:25:42;7.35;;;4.13;;
7444;SDS011;3764;48.126;11.594;2023-10-13T04:28:33;5.57;;;3.75;;
7444;SDS011;3764;48.126;11.594;2023-10-13T04:31:15;9.40;;;3.72;;
7444;SDS011;3764;48.126;11.594;2023-10-13T04:33:50;12.82;;;5.00;;
7444;SDS011;3764;48.126;11.594;2023-10-13T04:36:19;10.82;;;4.13;;
7444;SDS011;3764;48.126;11.594;2023-10-13T04:39:02;7.03;;;4.20;;
7444;SDS011;3764;48.126;11.594;2023-10-13T04:41:35;6.90;;;3.67;;
7444;SDS011;3764;48.126;11.594;2023-10-13T04:44:04;10.75;;;4.00;;
7444;SDS011;3764;48.126;11.594;2023-10-13T04:46:51;6.22;;;3.90;;
7444;SDS011;3764;48.126;11.594;2023-10-13T04:49:34;6.60;;;3.67;;
7444;SDS011;3764;48.126;11.594;2023-10-13T04:52:16;11.07;;;4.00;;
7444;SDS011;3764;48.126;11.594;2023-10-13T04:55:01;7.82;;;3.70;;
7444;SDS011;3764;48.126;11.594;2023-10-13T04:57:42;13.27;;;4.30;;
7444;SDS011;3764;48.126;11.594;2023-10-13T05:00:25;5.70;;;3.33;;
7444;SDS011;3764;48.126;11.594;2023-10-13T05:03:06;8.85;;;3.85;;
7444;SDS011;3764;48.126;11.594;2023-10-13T05:05:51;10.18;;;3.75;;
7444;SDS011;3764;48.126;11.594;2023-10-13T05:08:37;8.82;;;3.72;;
7444;SDS011;3764;48.126;11.594;2023-10-13T05:11:21;5.70;;;3.58;;
7444;SDS011;3764;48.126;11.594;2023-10-13T05:14:05;4.55;;;3.50;;
7444;SDS011;3764;48.126;11.594;2023-10-13T05:16:50;6.20;;;3.10;;
7444;SDS011;3764;48.126;11.594;2023-10-13T05:19:34;5.70;;;3.40;;
7444;SDS011;3764;48.126;11.594;2023-10-13T05:22:19;5.68;;;2.85;;
7444;SDS011;3764;48.126;11.594;2023-10-13T05:25:05;4.38;;;3.17;;
7444;SDS011;3764;48.126;11.594;2023-10-13T05:27:49;5.80;;;3.20;;
7444;SDS011;3764;48.126;11.594;2023-10-13T05:30:34;9.20;;;3.40;;
7444;SDS011;3764;48.126;11.594;2023-10-13T05:33:29;8.85;;;4.10;;
7444;SDS011;3764;48.126;11.594;2023-10-13T05:36:25;7.68;;;3.67;;
7444;SDS011;3764;48.126;11.594;2023-10-13T05:39:21;8.98;;;4.75;;
7444;SDS011;3764;48.126;11.594;2023-10-13T05:42:08;6.72;;;4.28;;
7444;SDS011;3764;48.126;11.594;2023-10-13T05:44:53;6.43;;;3.35;;
7444;SDS011;3764;48.126;11.594;2023-10-13T05:47:42;7.45;;;3.75;;
7444;SDS011;3764;48.126;11.594;2023-10-13T05:50:26;9.60;;;4.38;;
7444;SDS011;3764;48.126;11.594;2023-10-13T05:53:15;9.27;;;4.78;;
7444;SDS011;3764;48.126;11.594;2023-10-13T05:56:00;14.75;;;4.45;;
7444;SDS011;3764;48.126;11.594;2023-10-13T05:58:47;5.95;;;4.07;;
7444;SDS011;3764;48.126;11.594;2023-10-13T06:01:31;7.50;;;4.05;;
7444;SDS011;3764;48.126;11.594;2023-10-13T06:04:15;5.30;;;3.55;;
7444;SDS011;3764;48.126;11.594;2023-10-13T06:07:00;9.68;;;4.22;;
7444;SDS011;3764;48.126;11.594;2023-10-13T06:09:45;9.32;;;4.05;;
7444;SDS011;3764;48.126;11.594;2023-10-13T06:12:29;9.10;;;3.72;;
7444;SDS011;3764;48.126;11.594;2023-10-13T06:15:15;20.48;;;5.15;;
7444;SDS011;3764;48.126;11.594;2023-10-13T06:17:59;9.02;;;4.00;;
7444;SDS011;3764;48.126;11.594;2023-10-13T06:20:44;16.52;;;4.30;;
7444;SDS011;3764;48.126;11.594;2023-10-13T06:23:28;8.98;;;4.10;;
7444;SDS011;3764;48.126;11.594;2023-10-13T06:26:13;12.80;;;4.20;;
7444;SDS011;3764;48.126;11.594;2023-10-13T06:28:57;11.32;;;4.30;;
7444;SDS011;3764;48.126;11.594;2023-10-13T06:31:26;9.57;;;3.50;;
7444;SDS011;3764;48.126;11.594;2023-10-13T06:33:53;6.68;;;3.50;;
7444;SDS011;3764;48.126;11.594;2023-10-13T06:36:21;9.48;;;3.80;;
7444;SDS011;3764;48.126;11.594;2023-10-13T06:38:48;12.75;;;3.88;;
7444;SDS011;3764;48.126;11.594;2023-10-13T06:41:41;9.65;;;4.35;;
7444;SDS011;3764;48.126;11.594;2023-10-13T06:44:09;13.93;;;4.43;;
7444;SDS011;3764;48.126;11.594;2023-10-13T06:46:42;6.72;;;3.75;;
7444;SDS011;3764;48.126;11.594;2023-10-13T06:49:09;6.43;;;4.18;;
7444;SDS011;3764;48.126;11.594;2023-10-13T06:51:38;8.88;;;4.05;;
7444;SDS011;3764;48.126;11.594;2023-10-13T06:54:06;10.45;;;4.10;;
7444;SDS011;3764;48.126;11.594;2023-10-13T06:56:44;12.90;;;3.70;;
7444;SDS011;3764;48.126;11.594;2023-10-13T06:59:11;8.18;;;4.07;;
7444;SDS011;3764;48.126;11.594;2023-10-13T07:01:39;6.90;;;3.75;;
7444;SDS011;3764;48.126;11.594;2023-10-13T07:04:10;9.00;;;4.32;;
7444;SDS011;3764;48.126;11.594;2023-10-13T07:06:40;7.40;;;4.15;;
7444;SDS011;3764;48.126;11.594;2023-10-13T07:09:13;11.30;;;5.13;;
7444;SDS011;3764;48.126;11.594;2023-10-13T07:12:02;14.60;;;7.50;;
7444;SDS011;3764;48.126;11.594;2023-10-13T07:14:32;8.70;;;6.05;;
7444;SDS011;3764;48.126;11.594;2023-10-13T07:17:01;6.75;;;5.53;;
7444;SDS011;3764;48.126;11.594;2023-10-13T07:19:31;8.10;;;4.65;;
7444;SDS011;3764;48.126;11.594;2023-10-13T07:21:59;9.75;;;3.40;;
7444;SDS011;3764;48.126;11.594;2023-10-13T07:24:44;8.45;;;4.60;;
7444;SDS011;3764;48.126;11.594;2023-10-13T07:27:14;6.32;;;3.63;;
7444;SDS011;3764;48.126;11.594;2023-10-13T07:29:48;5.78;;;4.10;;
7444;SDS011;3764;48.126;11.594;2023-10-13T07:32:22;10.80;;;3.65;;
7444;SDS011;3764;48.126;11.594;2023-10-13T07:34:54;10.30;;;3.85;;
7444;SDS011;3764;48.126;11.594;2023-10-13T07:37:22;8.77;;;3.72;;
7444;SDS011;3764;48.126;11.594;2023-10-13T07:39:54;11.80;;;3.65;;
7444;SDS011;3764;48.126;11.594;2023-10-13T07:42:24;7.18;;;4.15;;
7444;SDS011;3764;48.126;11.594;2023-10-13T07:44:55;12.65;;;4.13;;
7444;SDS011;3764;48.126;11.594;2023-10-13T07:47:25;9.02;;;3.70;;
7444;SDS011;3764;48.126;11.594;2023-10-13T07:49:53;7.13;;;3.88;;
7444;SDS011;3764;48.126;11.594;2023-10-13T07:52:22;9.95;;;4.32;;
7444;SDS011;3764;48.126;11.594;2023-10-13T07:55:02;12.23;;;3.25;;
7444;SDS011;3764;48.126;11.594;2023-10-13T07:57:39;6.05;;;3.40;;
7444;SDS011;3764;48.126;11.594;2023-10-13T08:00:19;6.22;;;4.53;;
7444;SDS011;3764;48.126;11.594;2023-10-13T08:03:05;10.68;;;3.70;;
7444;SDS011;3764;48.126;11.594;2023-10-13T08:05:45;9.95;;;6.15;;
7444;SDS011;3764;48.126;11.594;2023-10-13T08:08:23;5.15;;;3.58;;
7444;SDS011;3764;48.126;11.594;2023-10-13T08:10:51;8.60;;;3.92;;
7444;SDS011;3764;48.126;11.594;2023-10-13T08:13:25;10.55;;;4.57;;
7444;SDS011;3764;48.126;11.594;2023-10-13T08:15:53;7.13;;;4.93;;
7444;SDS011;3764;48.126;11.594;2023-10-13T08:18:21;15.20;;;4.18;;
7444;SDS011;3764;48.126;11.594;2023-10-13T08:20:56;5.72;;;3.55;;
7444;SDS011;3764;48.126;11.594;2023-10-13T08:23:28;13.48;;;4.03;;
7444;SDS011;3764;48.126;11.594;2023-10-13T08:26:15;10.18;;;4.57;;
7444;SDS011;3764;48.126;11.594;2023-10-13T08:28:59;4.47;;;2.83;;
7444;SDS011;3764;48.126;11.594;2023-10-13T08:31:47;7.15;;;4.35;;
7444;SDS011;3764;48.126;11.594;2023-10-13T08:34:31;8.73;;;4.00;;
7444;SDS011;3764;48.126;11.594;2023-10-13T08:37:04;6.03;;;3.50;;
7444;SDS011;3764;48.126;11.594;2023-10-13T08:39:44;10.85;;;4.10;;
7444;SDS011;3764;48.126;11.594;2023-10-13T08:42:40;5.85;;;3.58;;
7444;SDS011;3764;48.126;11.594;2023-10-13T08:45:35;4.70;;;3.13;;
7444;SDS011;3764;48.126;11.594;2023-10-13T08:48:25;7.38;;;3.30;;
7444;SDS011;3764;48.126;11.594;2023-10-13T08:50:59;6.68;;;2.88;;
7444;SDS011;3764;48.126;11.594;2023-10-13T08:53:56;10.38;;;4.85;;
7444;SDS011;3764;48.126;11.594;2023-10-13T08:56:33;13.38;;;3.42;;
7444;SDS011;3764;48.126;11.594;2023-10-13T08:59:12;7.43;;;3.60;;
7444;SDS011;3764;48.126;11.594;2023-10-13T09:01:47;6.68;;;3.42;;
7444;SDS011;3764;48.126;11.594;2023-10-13T09:04:25;7.75;;;3.17;;
7444;SDS011;3764;48.126;11.594;2023-10-13T09:07:01;6.55;;;2.90;;
7444;SDS011;3764;48.126;11.594;2023-10-13T09:09:46;6.60;;;3.60;;
7444;SDS011;3764;48.126;11.594;2023-10-13T09:12:34;4.80;;;2.67;;
7444;SDS011;3764;48.126;11.594;2023-10-13T09:15:28;6.85;;;2.90;;
7444;SDS011;3764;48.126;11.594;2023-10-13T09:18:23;6.82;;;3.30;;
7444;SDS011;3764;48.126;11.594;2023-10-13T09:21:08;4.90;;;2.60;;
7444;SDS011;3764;48.126;11.594;2023-10-13T09:23:54;7.88;;;3.75;;
7444;SDS011;3764;48.126;11.594;2023-10-13T09:26:41;7.07;;;2.73;;
7444;SDS011;3764;48.126;11.594;2023-10-13T09:29:19;9.10;;;4.23;;
7444;SDS011;3764;48.126;11.594;2023-10-13T09:31:46;8.37;;;3.40;;
7444;SDS011;3764;48.126;11.594;2023-10-13T09:34:19;7.10;;;2.97;;
7444;SDS011;3764;48.126;11.594;2023-10-13T09:36:48;5.05;;;3.28;;
7444;SDS011;3764;48.126;11.594;2023-10-13T09:39:31;5.13;;;3.47;;
7444;SDS011;3764;48.126;11.594;2023-10-13T09:42:10;5.70;;;4.37;;
7444;SDS011;3764;48.126;11.594;2023-10-13T09:44:38;10.57;;;3.23;;
7444;SDS011;3764;48.126;11.594;2023-10-13T09:47:08;7.60;;;3.20;;
7444;SDS011;3764;48.126;11.594;2023-10-13T09:49:43;6.63;;;4.07;;
7444;SDS011;3764;48.126;11.594;2023-10-13T09:52:16;8.10;;;3.80;;
7444;SDS011;3764;48.126;11.594;2023-10-13T09:54:53;9.03;;;3.23;;
7444;SDS011;3764;48.126;11.594;2023-10-13T09:57:28;6.53;;;3.50;;
7444;SDS011;3764;48.126;11.594;2023-10-13T10:00:02;8.07;;;4.30;;
7444;SDS011;3764;48.126;11.594;2023-10-13T10:02:54;6.27;;;3.70;;
7444;SDS011;3764;48.126;11.594;2023-10-13T10:05:29;8.40;;;4.17;;
7444;SDS011;3764;48.126;11.594;2023-10-13T10:07:59;4.83;;;2.93;;
7444;SDS011;3764;48.126;11.594;2023-10-13T10:10:32;8.90;;;3.07;;
7444;SDS011;3764;48.126;11.594;2023-10-13T10:13:15;8.33;;;3.97;;
7444;SDS011;3764;48.126;11.594;2023-10-13T10:15:49;6.20;;;3.27;;
7444;SDS011;3764;48.126;11.594;2023-10-13T10:18:21;9.50;;;3.20;;
7444;SDS011;3764;48.126;11.594;2023-10-13T10:20:50;6.43;;;4.03;;
7444;SDS011;3764;48.126;11.594;2023-10-13T10:23:23;13.57;;;3.03;;
7444;SDS011;3764;48.126;11.594;2023-10-13T10:25:54;4.43;;;2.57;;
7444;SDS011;3764;48.126;11.594;2023-10-13T10:28:36;6.60;;;3.30;;
7444;SDS011;3764;48.126;11.594;2023-10-13T10:31:05;8.93;;;4.77;;
7444;SDS011;3764;48.126;11.594;2023-10-13T10:33:38;8.10;;;3.37;;
7444;SDS011;3764;48.126;11.594;2023-10-13T10:36:05;5.60;;;2.70;;
7444;SDS011;3764;48.126;11.594;2023-10-13T10:38:51;6.00;;;3.67;;
7444;SDS011;3764;48.126;11.594;2023-10-13T10:41:27;5.97;;;3.80;;
7444;SDS011;3764;48.126;11.594;2023-10-13T10:44:10;5.73;;;3.00;;
7444;SDS011;3764;48.126;11.594;2023-10-13T10:46:48;5.37;;;2.33;;
7444;SDS011;3764;48.126;11.594;2023-10-13T10:49:22;6.60;;;2.67;;
7444;SDS011;3764;48.126;11.594;2023-10-13T10:51:57;14.03;;;3.07;;
7444;SDS011;3764;48.126;11.594;2023-10-13T10:54:29;4.50;;;2.50;;
7444;SDS011;3764;48.126;11.594;2023-10-13T10:56:59;8.10;;;3.17;;
7444;SDS011;3764;48.126;11.594;2023-10-13T10:59:37;10.30;;;3.70;;
7444;SDS011;3764;48.126;11.594;2023-10-13T11:02:05;11.97;;;4.30;;
7444;SDS011;3764;48.126;11.594;2023-10-13T11:04:34;5.63;;;2.80;;
7444;SDS011;3764;48.126;11.594;2023-10-13T11:07:05;6.37;;;3.50;;
7444;SDS011;3764;48.126;11.594;2023-10-13T11:09:34;7.37;;;2.77;;
7444;SDS011;3764;48.126;11.594;2023-10-13T11:12:11;5.57;;;2.27;;
7444;SDS011;3764;48.126;11.594;2023-10-13T11:14:49;7.40;;;2.60;;
7444;SDS011;3764;48.126;11.594;2023-10-13T11:17:27;8.40;;;3.10;;
7444;SDS011;3764;48.126;11.594;2023-10-13T11:20:10;9.67;;;3.37;;
7444;SDS011;3764;48.126;11.594;2023-10-13T11:22:50;7.60;;;2.63;;
7444;SDS011;3764;48.126;11.594;2023-10-13T11:25:22;4.27;;;2.40;;
7444;SDS011;3764;48.126;11.594;2023-10-13T11:27:56;14.20;;;2.77;;
7444;SDS011;3764;48.126;11.594;2023-10-13T11:30:24;8.30;;;2.40;;
7444;SDS011;3764;48.126;11.594;2023-10-13T11:32:57;7.73;;;3.30;;
7444;SDS011;3764;48.126;11.594;2023-10-13T11:35:25;9.43;;;3.20;;
7444;SDS011;3764;48.126;11.594;2023-10-13T11:37:55;5.63;;;3.33;;
7444;SDS011;3764;48.126;11.594;2023-10-13T11:40:28;7.90;;;2.83;;
7444;SDS011;3764;48.126;11.594;2023-10-13T11:43:10;8.00;;;2.70;;
7444;SDS011;3764;48.126;11.594;2023-10-13T11:45:40;6.37;;;2.80;;
7444;SDS011;3764;48.126;11.594;2023-10-13T11:48:20;8.03;;;2.53;;
7444;SDS011;3764;48.126;11.594;2023-10-13T11:51:00;8.77;;;3.50;;
7444;SDS011;3764;48.126;11.594;2023-10-13T11:53:32;8.87;;;2.83;;
7444;SDS011;3764;48.126;11.594;2023-10-13T11:55:59;7.90;;;3.60;;
7444;SDS011;3764;48.126;11.594;2023-10-13T11:58:28;6.47;;;2.77;;
7444;SDS011;3764;48.126;11.594;2023-10-13T12:00:55;4.83;;;2.77;;
7444;SDS011;3764;48.126;11.594;2023-10-13T12:03:45;5.13;;;2.60;;
7444;SDS011;3764;48.126;11.594;2023-10-13T12:06:31;13.83;;;3.83;;
7444;SDS011;3764;48.126;11.594;2023-10-13T12:09:11;11.17;;;2.40;;
7444;SDS011;3764;48.126;11.594;2023-10-13T12:11:57;4.33;;;2.43;;
7444;SDS011;3764;48.126;11.594;2023-10-13T12:14:29;7.57;;;2.20;;
7444;SDS011;3764;48.126;11.594;2023-10-13T12:17:02;9.00;;;3.30;;
7444;SDS011;3764;48.126;11.594;2023-10-13T12:19:35;7.53;;;3.73;;
7444;SDS011;3764;48.126;11.594;2023-10-13T12:22:04;5.43;;;2.50;;
7444;SDS011;3764;48.126;11.594;2023-10-13T12:24:34;6.67;;;2.50;;
7444;SDS011;3764;48.126;11.594;2023-10-13T12:27:08;8.93;;;3.97;;
7444;SDS011;3764;48.126;11.594;2023-10-13T12:29:46;7.77;;;3.10;;
7444;SDS011;3764;48.126;11.594;2023-10-13T12:32:14;9.93;;;3.50;;
7444;SDS011;3764;48.126;11.594;2023-10-13T12:34:47;7.50;;;3.20;;
7444;SDS011;3764;48.126;11.594;2023-10-13T12:37:26;5.93;;;3.30;;
7444;SDS011;3764;48.126;11.594;2023-10-13T12:40:16;7.73;;;3.10;;
7444;SDS011;3764;48.126;11.594;2023-10-13T12:43:02;5.90;;;3.00;;
7444;SDS011;3764;48.126;11.594;2023-10-13T12:45:49;5.77;;;2.83;;
7444;SDS011;3764;48.126;11.594;2023-10-13T12:48:35;4.43;;;2.80;;
7444;SDS011;3764;48.126;11.594;2023-10-13T12:51:20;9.30;;;3.40;;
7444;SDS011;3764;48.126;11.594;2023-10-13T12:54:05;10.23;;;3.07;;
7444;SDS011;3764;48.126;11.594;2023-10-13T12:56:39;10.60;;;3.53;;
7444;SDS011;3764;48.126;11.594;2023-10-13T12:59:08;11.03;;;2.93;;
7444;SDS011;3764;48.126;11.594;2023-10-13T13:01:40;6.03;;;2.70;;
7444;SDS011;3764;48.126;11.594;2023-10-13T13:04:08;6.53;;;2.53;;
7444;SDS011;3764;48.126;11.594;2023-10-13T13:06:45;6.50;;;2.93;;
7444;SDS011;3764;48.126;11.594;2023-10-13T13:09:13;6.80;;;3.00;;
7444;SDS011;3764;48.126;11.594;2023-10-13T13:11:40;5.30;;;3.23;;
7444;SDS011;3764;48.126;11.594;2023-10-13T13:14:07;5.93;;;3.43;;
7444;SDS011;3764;48.126;11.594;2023-10-13T13:16:35;4.90;;;3.23;;
7444;SDS011;3764;48.126;11.594;2023-10-13T13:19:05;9.50;;;4.03;;
7444;SDS011;3764;48.126;11.594;2023-10-13T13:21:36;8.50;;;3.93;;
7444;SDS011;3764;48.126;11.594;2023-10-13T13:24:04;8.43;;;4.10;;
7444;SDS011;3764;48.126;11.594;2023-10-13T13:26:36;6.60;;;3.53;;
7444;SDS011;3764;48.126;11.594;2023-10-13T13:29:06;7.60;;;2.90;;
7444;SDS011;3764;48.126;11.594;2023-10-13T13:31:36;10.00;;;3.50;;
7444;SDS011;3764;48.126;11.594;2023-10-13T13:34:08;4.70;;;3.53;;
7444;SDS011;3764;48.126;11.594;2023-10-13T13:36:37;9.20;;;3.83;;
7444;SDS011;3764;48.126;11.594;2023-10-13T13:39:09;6.13;;;4.03;;
7444;SDS011;3764;48.126;11.594;2023-10-13T13:41:36;8.73;;;3.40;;
7444;SDS011;3764;48.126;11.594;2023-10-13T13:44:03;8.53;;;3.47;;
7444;SDS011;3764;48.126;11.594;2023-10-13T13:46:39;5.90;;;3.00;;
7444;SDS011;3764;48.126;11.594;2023-10-13T13:49:10;6.40;;;3.23;;
7444;SDS011;3764;48.126;11.594;2023-10-13T13:51:44;9.10;;;3.30;;
7444;SDS011;3764;48.126;11.594;2023-10-13T13:54:17;5.73;;;3.37;;
7444;SDS011;3764;48.126;11.594;2023-10-13T13:56:45;6.13;;;3.43;;
7444;SDS011;3764;48.126;11.594;2023-10-13T13:59:13;12.57;;;3.27;;
7444;SDS011;3764;48.126;11.594;2023-10-13T14:01:45;10.50;;;4.27;;
7444;SDS011;3764;48.126;11.594;2023-10-13T14:04:14;9.03;;;4.13;;
7444;SDS011;3764;48.126;11.594;2023-10-13T14:06:43;7.90;;;4.47;;
7444;SDS011;3764;48.126;11.594;2023-10-13T14:09:11;10.63;;;4.53;;
7444;SDS011;3764;48.126;11.594;2023-10-13T14:11:57;13.93;;;5.43;;
7444;SDS011;3764;48.126;11.594;2023-10-13T14:14:42;12.50;;;6.60;;
7444;SDS011;3764;48.126;11.594;2023-10-13T14:17:14;9.03;;;5.20;;
7444;SDS011;3764;48.126;11.594;2023-10-13T14:19:43;10.97;;;6.47;;
7444;SDS011;3764;48.126;11.594;2023-10-13T14:22:11;7.30;;;3.73;;
7444;SDS011;3764;48.126;11.594;2023-10-13T14:24:38;12.40;;;7.50;;
7444;SDS011;3764;48.126;11.594;2023-10-13T14:27:12;10.97;;;6.43;;
7444;SDS011;3764;48.126;11.594;2023-10-13T14:29:42;8.20;;;6.00;;
7444;SDS011;3764;48.126;11.594;2023-10-13T14:32:10;9.03;;;6.50;;
7444;SDS011;3764;48.126;11.594;2023-10-13T14:34:39;12.87;;;7.40;;
7444;SDS011;3764;48.126;11.594;2023-10-13T14:37:08;12.83;;;6.00;;
7444;SDS011;3764;48.126;11.594;2023-10-13T14:39:38;8.03;;;6.27;;
7444;SDS011;3764;48.126;11.594;2023-10-13T14:42:05;13.37;;;6.73;;
7444;SDS011;3764;48.126;11.594;2023-10-13T14:44:32;7.87;;;5.73;;
7444;SDS011;3764;48.126;11.594;2023-10-13T14:47:00;12.70;;;7.10;;
7444;SDS011;3764;48.126;11.594;2023-10-13T14:49:27;14.43;;;7.90;;
7444;SDS011;3764;48.126;11.594;2023-10-13T14:51:54;15.10;;;8.63;;
7444;SDS011;3764;48.126;11.594;2023-10-13T14:54:23;11.80;;;7.60;;
7444;SDS011;3764;48.126;11.594;2023-10-13T14:56:59;8.10;;;6.10;;
7444;SDS011;3764;48.126;11.594;2023-10-13T14:59:27;12.10;;;7.03;;
7444;SDS011;3764;48.126;11.594;2023-10-13T15:01:58;8.40;;;6.60;;
7444;SDS011;3764;48.126;11.594;2023-10-13T15:04:27;15.93;;;8.37;;
7444;SDS011;3764;48.126;11.594;2023-10-13T15:06:58;9.90;;;7.33;;
7444;SDS011;3764;48.126;11.594;2023-10-13T15:09:28;8.47;;;7.40;;
7444;SDS011;3764;48.126;11.594;2023-10-13T15:11:56;9.63;;;6.10;;
7444;SDS011;3764;48.126;11.594;2023-10-13T15:14:23;8.83;;;7.03;;
7444;SDS011;3764;48.126;11.594;2023-10-13T15:16:50;11.83;;;8.13;;
7444;SDS011;3764;48.126;11.594;2023-10-13T15:19:18;13.73;;;7.57;;
7444;SDS011;3764;48.126;11.594;2023-10-13T15:21:45;11.37;;;7.27;;
7444;SDS011;3764;48.126;11.594;2023-10-13T15:24:15;11.53;;;8.00;;
7444;SDS011;3764;48.126;11.594;2023-10-13T15:26:44;10.20;;;7.03;;
7444;SDS011;3764;48.126;11.594;2023-10-13T15:29:14;13.27;;;7.83;;
7444;SDS011;3764;48.126;11.594;2023-10-13T15:31:42;8.47;;;6.70;;
7444;SDS011;3764;48.126;11.594;2023-10-13T15:34:29;11.70;;;7.70;;
7444;SDS011;3764;48.126;11.594;2023-10-13T15:36:57;11.40;;;7.90;;
7444;SDS011;3764;48.126;11.594;2023-10-13T15:39:25;13.70;;;8.50;;
7444;SDS011;3764;48.126;11.594;2023-10-13T15:41:55;11.47;;;8.23;;
7444;SDS011;3764;48.126;11.594;2023-10-13T15:44:25;9.03;;;6.50;;